sensor_id;sensor_type;location;lat;lon;timestamp;P1;durP1;ratioP1;P2;durP2;ratioP2
14778;SDS011;7481;53.750;10.570;2023-04-25T00:00:37;6.80;;;4.57;;
14778;SDS011;7481;53.750;10.570;2023-04-25T00:03:25;8.83;;;5.30;;
14778;SDS011;7481;53.750;10.570;2023-04-25T00:06:12;6.33;;;4.17;;
14778;SDS011;7481;53.750;10.570;2023-04-25T00:09:00;8.90;;;5.27;;
14778;SDS011;7481;53.750;10.570;2023-04-25T00:11:47;8.70;;;5.40;;
14778;SDS011;7481;53.750;10.570;2023-04-25T00:14:35;10.20;;;4.70;;
14778;SDS011;7481;53.750;10.570;2023-04-25T00:17:22;9.77;;;4.87;;
14778;SDS011;7481;53.750;10.570;2023-04-25T00:20:13;10.27;;;4.93;;
14778;SDS011;7481;53.750;10.570;2023-04-25T00:23:01;9.90;;;5.10;;
14778;SDS011;7481;53.750;10.570;2023-04-25T00:25:49;12.20;;;5.30;;
14778;SDS011;7481;53.750;10.570;2023-04-25T00:28:37;9.07;;;5.00;;
14778;SDS011;7481;53.750;10.570;2023-04-25T00:31:24;12.17;;;4.53;;
14778;SDS011;7481;53.750;10.570;2023-04-25T00:34:12;12.83;;;5.30;;
14778;SDS011;7481;53.750;10.570;2023-04-25T00:36:59;15.80;;;5.83;;
14778;SDS011;7481;53.750;10.570;2023-04-25T00:39:48;10.80;;;5.23;;
14778;SDS011;7481;53.750;10.570;2023-04-25T00:42:36;13.60;;;5.17;;
14778;SDS011;7481;53.750;10.570;2023-04-25T00:45:24;12.03;;;5.50;;
14778;SDS011;7481;53.750;10.570;2023-04-25T00:48:14;14.83;;;5.67;;
14778;SDS011;7481;53.750;10.570;2023-04-25T00:51:01;11.37;;;4.90;;
14778;SDS011;7481;53.750;10.570;2023-04-25T00:53:49;15.40;;;5.10;;
14778;SDS011;7481;53.750;10.570;2023-04-25T00:56:37;14.03;;;5.30;;
14778;SDS011;7481;53.750;10.570;2023-04-25T00:59:25;12.90;;;4.40;;
14778;SDS011;7481;53.750;10.570;2023-04-25T01:02:13;13.47;;;3.87;;
14778;SDS011;7481;53.750;10.570;2023-04-25T01:05:01;19.93;;;5.33;;
14778;SDS011;7481;53.750;10.570;2023-04-25T01:07:49;12.23;;;3.93;;
14778;SDS011;7481;53.750;10.570;2023-04-25T01:10:36;13.40;;;4.67;;
14778;SDS011;7481;53.750;10.570;2023-04-25T01:13:24;12.07;;;3.93;;
14778;SDS011;7481;53.750;10.570;2023-04-25T01:16:11;13.47;;;4.03;;
14778;SDS011;7481;53.750;10.570;2023-04-25T01:18:59;13.87;;;4.03;;
14778;SDS011;7481;53.750;10.570;2023-04-25T01:21:46;13.93;;;3.83;;
14778;SDS011;7481;53.750;10.570;2023-04-25T01:24:34;17.30;;;3.80;;
14778;SDS011;7481;53.750;10.570;2023-04-25T01:27:21;10.23;;;4.03;;
14778;SDS011;7481;53.750;10.570;2023-04-25T01:30:09;11.17;;;3.80;;
14778;SDS011;7481;53.750;10.570;2023-04-25T01:32:57;12.43;;;3.67;;
14778;SDS011;7481;53.750;10.570;2023-04-25T01:35:44;14.23;;;4.00;;
14778;SDS011;7481;53.750;10.570;2023-04-25T01:38:33;14.77;;;3.77;;
14778;SDS011;7481;53.750;10.570;2023-04-25T01:41:21;11.03;;;3.67;;
14778;SDS011;7481;53.750;10.570;2023-04-25T01:44:09;9.30;;;3.60;;
14778;SDS011;7481;53.750;10.570;2023-04-25T01:46:57;13.70;;;3.90;;
14778;SDS011;7481;53.750;10.570;2023-04-25T01:49:44;14.97;;;4.03;;
14778;SDS011;7481;53.750;10.570;2023-04-25T01:52:32;16.83;;;4.33;;
14778;SDS011;7481;53.750;10.570;2023-04-25T01:55:19;15.53;;;3.67;;
14778;SDS011;7481;53.750;10.570;2023-04-25T01:58:06;15.60;;;3.93;;
14778;SDS011;7481;53.750;10.570;2023-04-25T02:00:56;17.23;;;4.50;;
14778;SDS011;7481;53.750;10.570;2023-04-25T02:03:43;10.63;;;3.43;;
14778;SDS011;7481;53.750;10.570;2023-04-25T02:06:31;16.23;;;4.50;;
14778;SDS011;7481;53.750;10.570;2023-04-25T02:09:18;10.00;;;3.43;;
14778;SDS011;7481;53.750;10.570;2023-04-25T02:12:07;18.07;;;4.53;;
14778;SDS011;7481;53.750;10.570;2023-04-25T02:14:54;10.83;;;4.20;;
14778;SDS011;7481;53.750;10.570;2023-04-25T02:17:42;19.97;;;4.80;;
14778;SDS011;7481;53.750;10.570;2023-04-25T02:20:31;20.90;;;4.33;;
14778;SDS011;7481;53.750;10.570;2023-04-25T02:23:19;14.90;;;3.63;;
14778;SDS011;7481;53.750;10.570;2023-04-25T02:26:06;15.13;;;4.97;;
14778;SDS011;7481;53.750;10.570;2023-04-25T02:28:53;20.70;;;4.73;;
14778;SDS011;7481;53.750;10.570;2023-04-25T02:31:41;18.50;;;4.27;;
14778;SDS011;7481;53.750;10.570;2023-04-25T02:34:29;14.60;;;3.83;;
14778;SDS011;7481;53.750;10.570;2023-04-25T02:37:16;14.67;;;3.63;;
14778;SDS011;7481;53.750;10.570;2023-04-25T02:40:04;28.07;;;4.40;;
14778;SDS011;7481;53.750;10.570;2023-04-25T02:42:51;20.50;;;4.27;;
14778;SDS011;7481;53.750;10.570;2023-04-25T02:45:39;15.73;;;4.73;;
14778;SDS011;7481;53.750;10.570;2023-04-25T02:48:26;17.07;;;4.03;;
14778;SDS011;7481;53.750;10.570;2023-04-25T02:51:14;9.43;;;3.70;;
14778;SDS011;7481;53.750;10.570;2023-04-25T02:54:02;15.17;;;4.07;;
14778;SDS011;7481;53.750;10.570;2023-04-25T02:56:50;15.60;;;4.17;;
14778;SDS011;7481;53.750;10.570;2023-04-25T02:59:37;14.17;;;3.83;;
14778;SDS011;7481;53.750;10.570;2023-04-25T03:02:25;14.37;;;3.87;;
14778;SDS011;7481;53.750;10.570;2023-04-25T03:05:12;15.00;;;3.83;;
14778;SDS011;7481;53.750;10.570;2023-04-25T03:07:59;19.77;;;4.60;;
14778;SDS011;7481;53.750;10.570;2023-04-25T03:10:47;17.13;;;4.67;;
14778;SDS011;7481;53.750;10.570;2023-04-25T03:13:36;23.10;;;5.40;;
14778;SDS011;7481;53.750;10.570;2023-04-25T03:16:23;17.03;;;4.73;;
14778;SDS011;7481;53.750;10.570;2023-04-25T03:19:11;14.20;;;4.00;;
14778;SDS011;7481;53.750;10.570;2023-04-25T03:21:58;12.77;;;4.00;;
14778;SDS011;7481;53.750;10.570;2023-04-25T03:24:46;14.77;;;3.47;;
14778;SDS011;7481;53.750;10.570;2023-04-25T03:27:33;13.50;;;3.50;;
14778;SDS011;7481;53.750;10.570;2023-04-25T03:30:21;17.63;;;4.80;;
14778;SDS011;7481;53.750;10.570;2023-04-25T03:33:08;19.50;;;4.37;;
14778;SDS011;7481;53.750;10.570;2023-04-25T03:35:55;11.43;;;3.13;;
14778;SDS011;7481;53.750;10.570;2023-04-25T03:38:43;17.13;;;4.60;;
14778;SDS011;7481;53.750;10.570;2023-04-25T03:41:30;14.53;;;3.63;;
14778;SDS011;7481;53.750;10.570;2023-04-25T03:44:18;10.43;;;3.93;;
14778;SDS011;7481;53.750;10.570;2023-04-25T03:47:05;11.30;;;3.23;;
14778;SDS011;7481;53.750;10.570;2023-04-25T03:49:53;17.50;;;5.33;;
14778;SDS011;7481;53.750;10.570;2023-04-25T03:52:41;12.17;;;3.70;;
14778;SDS011;7481;53.750;10.570;2023-04-25T03:55:28;10.67;;;4.07;;
14778;SDS011;7481;53.750;10.570;2023-04-25T03:58:15;14.47;;;3.80;;
14778;SDS011;7481;53.750;10.570;2023-04-25T04:01:03;11.17;;;3.53;;
14778;SDS011;7481;53.750;10.570;2023-04-25T04:03:53;13.57;;;4.17;;
14778;SDS011;7481;53.750;10.570;2023-04-25T04:06:42;17.63;;;4.17;;
14778;SDS011;7481;53.750;10.570;2023-04-25T04:09:29;12.30;;;3.93;;
14778;SDS011;7481;53.750;10.570;2023-04-25T04:12:16;15.20;;;4.10;;
14778;SDS011;7481;53.750;10.570;2023-04-25T04:15:04;14.00;;;3.40;;
14778;SDS011;7481;53.750;10.570;2023-04-25T04:17:52;15.97;;;3.83;;
14778;SDS011;7481;53.750;10.570;2023-04-25T04:20:40;12.33;;;3.73;;
14778;SDS011;7481;53.750;10.570;2023-04-25T04:23:28;11.80;;;3.13;;
14778;SDS011;7481;53.750;10.570;2023-04-25T04:26:15;16.17;;;4.00;;
14778;SDS011;7481;53.750;10.570;2023-04-25T04:29:02;15.83;;;4.03;;
14778;SDS011;7481;53.750;10.570;2023-04-25T04:31:50;14.13;;;4.07;;
14778;SDS011;7481;53.750;10.570;2023-04-25T04:34:39;13.97;;;3.97;;
14778;SDS011;7481;53.750;10.570;2023-04-25T04:37:27;15.97;;;3.50;;
14778;SDS011;7481;53.750;10.570;2023-04-25T04:40:15;15.93;;;3.80;;
14778;SDS011;7481;53.750;10.570;2023-04-25T04:43:02;12.07;;;3.60;;
14778;SDS011;7481;53.750;10.570;2023-04-25T04:45:50;16.43;;;6.23;;
14778;SDS011;7481;53.750;10.570;2023-04-25T04:48:37;12.13;;;4.13;;
14778;SDS011;7481;53.750;10.570;2023-04-25T04:51:26;13.27;;;3.53;;
14778;SDS011;7481;53.750;10.570;2023-04-25T04:54:13;16.13;;;3.70;;
14778;SDS011;7481;53.750;10.570;2023-04-25T04:57:01;14.17;;;3.80;;
14778;SDS011;7481;53.750;10.570;2023-04-25T04:59:48;15.50;;;4.70;;
14778;SDS011;7481;53.750;10.570;2023-04-25T05:02:37;9.10;;;3.27;;
14778;SDS011;7481;53.750;10.570;2023-04-25T05:05:25;14.57;;;4.00;;
14778;SDS011;7481;53.750;10.570;2023-04-25T05:08:12;15.93;;;3.83;;
14778;SDS011;7481;53.750;10.570;2023-04-25T05:11:00;14.93;;;3.30;;
14778;SDS011;7481;53.750;10.570;2023-04-25T05:13:47;14.37;;;3.73;;
14778;SDS011;7481;53.750;10.570;2023-04-25T05:16:35;15.50;;;3.57;;
14778;SDS011;7481;53.750;10.570;2023-04-25T05:19:22;15.63;;;3.73;;
14778;SDS011;7481;53.750;10.570;2023-04-25T05:22:10;18.60;;;4.37;;
14778;SDS011;7481;53.750;10.570;2023-04-25T05:24:57;8.43;;;3.57;;
14778;SDS011;7481;53.750;10.570;2023-04-25T05:27:45;10.67;;;3.20;;
14778;SDS011;7481;53.750;10.570;2023-04-25T05:30:32;20.73;;;5.03;;
14778;SDS011;7481;53.750;10.570;2023-04-25T05:33:20;15.30;;;3.30;;
14778;SDS011;7481;53.750;10.570;2023-04-25T05:36:08;11.20;;;3.17;;
14778;SDS011;7481;53.750;10.570;2023-04-25T05:38:55;10.93;;;3.63;;
14778;SDS011;7481;53.750;10.570;2023-04-25T05:41:43;9.90;;;3.40;;
14778;SDS011;7481;53.750;10.570;2023-04-25T05:44:30;14.40;;;3.23;;
14778;SDS011;7481;53.750;10.570;2023-04-25T05:47:18;11.97;;;3.07;;
14778;SDS011;7481;53.750;10.570;2023-04-25T05:50:05;18.57;;;4.20;;
14778;SDS011;7481;53.750;10.570;2023-04-25T05:52:53;15.03;;;3.27;;
14778;SDS011;7481;53.750;10.570;2023-04-25T05:55:40;14.23;;;3.67;;
14778;SDS011;7481;53.750;10.570;2023-04-25T05:58:28;12.43;;;3.13;;
14778;SDS011;7481;53.750;10.570;2023-04-25T06:01:15;10.40;;;2.90;;
14778;SDS011;7481;53.750;10.570;2023-04-25T06:04:03;13.70;;;3.77;;
14778;SDS011;7481;53.750;10.570;2023-04-25T06:06:51;11.60;;;3.33;;
14778;SDS011;7481;53.750;10.570;2023-04-25T06:09:38;12.53;;;3.07;;
14778;SDS011;7481;53.750;10.570;2023-04-25T06:12:26;17.17;;;3.60;;
14778;SDS011;7481;53.750;10.570;2023-04-25T06:15:14;12.50;;;3.40;;
14778;SDS011;7481;53.750;10.570;2023-04-25T06:18:14;11.83;;;3.00;;
14778;SDS011;7481;53.750;10.570;2023-04-25T06:21:01;9.23;;;2.97;;
14778;SDS011;7481;53.750;10.570;2023-04-25T06:23:49;7.63;;;3.10;;
14778;SDS011;7481;53.750;10.570;2023-04-25T06:26:37;5.97;;;2.67;;
14778;SDS011;7481;53.750;10.570;2023-04-25T06:29:24;6.10;;;2.57;;
14778;SDS011;7481;53.750;10.570;2023-04-25T06:32:11;8.40;;;2.87;;
14778;SDS011;7481;53.750;10.570;2023-04-25T06:34:59;10.37;;;2.83;;
14778;SDS011;7481;53.750;10.570;2023-04-25T06:37:47;6.57;;;3.03;;
14778;SDS011;7481;53.750;10.570;2023-04-25T06:40:34;7.80;;;2.73;;
14778;SDS011;7481;53.750;10.570;2023-04-25T06:43:22;11.57;;;3.07;;
14778;SDS011;7481;53.750;10.570;2023-04-25T06:46:10;8.33;;;2.73;;
14778;SDS011;7481;53.750;10.570;2023-04-25T06:48:57;15.20;;;3.30;;
14778;SDS011;7481;53.750;10.570;2023-04-25T06:51:45;10.07;;;2.87;;
14778;SDS011;7481;53.750;10.570;2023-04-25T06:54:32;6.90;;;2.70;;
14778;SDS011;7481;53.750;10.570;2023-04-25T06:57:19;11.43;;;3.10;;
14778;SDS011;7481;53.750;10.570;2023-04-25T07:00:07;8.63;;;3.53;;
14778;SDS011;7481;53.750;10.570;2023-04-25T07:02:56;13.60;;;3.40;;
14778;SDS011;7481;53.750;10.570;2023-04-25T07:05:44;11.20;;;3.27;;
14778;SDS011;7481;53.750;10.570;2023-04-25T07:08:32;18.00;;;4.43;;
14778;SDS011;7481;53.750;10.570;2023-04-25T07:11:19;11.93;;;4.60;;
14778;SDS011;7481;53.750;10.570;2023-04-25T07:14:07;13.37;;;5.40;;
14778;SDS011;7481;53.750;10.570;2023-04-25T07:16:54;17.80;;;3.97;;
14778;SDS011;7481;53.750;10.570;2023-04-25T07:19:43;14.67;;;5.27;;
14778;SDS011;7481;53.750;10.570;2023-04-25T07:22:33;16.63;;;4.13;;
14778;SDS011;7481;53.750;10.570;2023-04-25T07:25:20;12.30;;;3.90;;
14778;SDS011;7481;53.750;10.570;2023-04-25T07:28:08;9.33;;;3.50;;
14778;SDS011;7481;53.750;10.570;2023-04-25T07:30:55;8.53;;;3.30;;
14778;SDS011;7481;53.750;10.570;2023-04-25T07:33:44;7.73;;;2.77;;
14778;SDS011;7481;53.750;10.570;2023-04-25T07:36:32;8.00;;;2.80;;
14778;SDS011;7481;53.750;10.570;2023-04-25T07:39:19;14.13;;;3.43;;
14778;SDS011;7481;53.750;10.570;2023-04-25T07:42:07;11.13;;;3.87;;
14778;SDS011;7481;53.750;10.570;2023-04-25T07:44:54;12.03;;;2.90;;
14778;SDS011;7481;53.750;10.570;2023-04-25T07:47:42;16.20;;;5.20;;
14778;SDS011;7481;53.750;10.570;2023-04-25T07:50:29;8.77;;;3.10;;
14778;SDS011;7481;53.750;10.570;2023-04-25T07:53:17;10.13;;;2.53;;
14778;SDS011;7481;53.750;10.570;2023-04-25T07:56:05;10.53;;;2.73;;
14778;SDS011;7481;53.750;10.570;2023-04-25T07:58:52;12.10;;;2.60;;
14778;SDS011;7481;53.750;10.570;2023-04-25T08:01:40;15.43;;;3.90;;
14778;SDS011;7481;53.750;10.570;2023-04-25T08:04:27;16.17;;;4.30;;
14778;SDS011;7481;53.750;10.570;2023-04-25T08:07:15;13.17;;;4.87;;
14778;SDS011;7481;53.750;10.570;2023-04-25T08:10:03;15.73;;;5.83;;
14778;SDS011;7481;53.750;10.570;2023-04-25T08:12:51;15.40;;;6.03;;
14778;SDS011;7481;53.750;10.570;2023-04-25T08:15:38;6.40;;;3.50;;
14778;SDS011;7481;53.750;10.570;2023-04-25T08:18:26;10.90;;;3.97;;
14778;SDS011;7481;53.750;10.570;2023-04-25T08:21:13;12.57;;;3.97;;
14778;SDS011;7481;53.750;10.570;2023-04-25T08:24:01;15.90;;;6.73;;
14778;SDS011;7481;53.750;10.570;2023-04-25T08:26:49;10.63;;;2.63;;
14778;SDS011;7481;53.750;10.570;2023-04-25T08:29:36;13.53;;;4.87;;
14778;SDS011;7481;53.750;10.570;2023-04-25T08:32:24;14.53;;;3.03;;
14778;SDS011;7481;53.750;10.570;2023-04-25T08:35:13;8.17;;;2.87;;
14778;SDS011;7481;53.750;10.570;2023-04-25T08:38:00;14.97;;;4.40;;
14778;SDS011;7481;53.750;10.570;2023-04-25T08:40:49;9.47;;;3.17;;
14778;SDS011;7481;53.750;10.570;2023-04-25T08:43:37;20.23;;;4.53;;
14778;SDS011;7481;53.750;10.570;2023-04-25T08:46:29;12.53;;;4.07;;
14778;SDS011;7481;53.750;10.570;2023-04-25T08:49:18;12.50;;;3.50;;
14778;SDS011;7481;53.750;10.570;2023-04-25T08:52:06;8.43;;;3.30;;
14778;SDS011;7481;53.750;10.570;2023-04-25T08:54:53;13.10;;;3.47;;
14778;SDS011;7481;53.750;10.570;2023-04-25T08:57:41;10.07;;;3.60;;
14778;SDS011;7481;53.750;10.570;2023-04-25T09:00:29;16.30;;;4.47;;
14778;SDS011;7481;53.750;10.570;2023-04-25T09:03:17;6.40;;;2.40;;
14778;SDS011;7481;53.750;10.570;2023-04-25T09:06:05;5.97;;;1.80;;
14778;SDS011;7481;53.750;10.570;2023-04-25T09:08:52;8.23;;;2.23;;
14778;SDS011;7481;53.750;10.570;2023-04-25T09:11:40;9.60;;;2.37;;
14778;SDS011;7481;53.750;10.570;2023-04-25T09:14:27;8.13;;;2.40;;
14778;SDS011;7481;53.750;10.570;2023-04-25T09:17:15;7.70;;;2.43;;
14778;SDS011;7481;53.750;10.570;2023-04-25T09:20:14;8.63;;;3.33;;
14778;SDS011;7481;53.750;10.570;2023-04-25T09:23:02;6.50;;;2.67;;
14778;SDS011;7481;53.750;10.570;2023-04-25T09:25:52;9.40;;;3.83;;
14778;SDS011;7481;53.750;10.570;2023-04-25T09:28:40;9.90;;;2.97;;
14778;SDS011;7481;53.750;10.570;2023-04-25T09:31:29;13.33;;;5.47;;
14778;SDS011;7481;53.750;10.570;2023-04-25T09:34:17;7.77;;;3.13;;
14778;SDS011;7481;53.750;10.570;2023-04-25T09:37:04;7.47;;;2.90;;
14778;SDS011;7481;53.750;10.570;2023-04-25T09:39:56;9.40;;;2.97;;
14778;SDS011;7481;53.750;10.570;2023-04-25T09:42:43;8.37;;;2.27;;
14778;SDS011;7481;53.750;10.570;2023-04-25T09:45:31;7.20;;;2.50;;
14778;SDS011;7481;53.750;10.570;2023-04-25T09:48:19;5.47;;;2.20;;
14778;SDS011;7481;53.750;10.570;2023-04-25T09:51:10;6.90;;;2.00;;
14778;SDS011;7481;53.750;10.570;2023-04-25T09:53:58;6.07;;;2.47;;
14778;SDS011;7481;53.750;10.570;2023-04-25T09:56:46;5.17;;;2.80;;
14778;SDS011;7481;53.750;10.570;2023-04-25T09:59:35;7.93;;;2.70;;
14778;SDS011;7481;53.750;10.570;2023-04-25T10:02:25;7.33;;;2.87;;
14778;SDS011;7481;53.750;10.570;2023-04-25T10:05:13;4.87;;;2.00;;
14778;SDS011;7481;53.750;10.570;2023-04-25T10:08:02;5.93;;;1.77;;
14778;SDS011;7481;53.750;10.570;2023-04-25T10:10:52;4.07;;;1.87;;
14778;SDS011;7481;53.750;10.570;2023-04-25T10:13:40;5.53;;;2.07;;
14778;SDS011;7481;53.750;10.570;2023-04-25T10:16:27;7.13;;;2.00;;
14778;SDS011;7481;53.750;10.570;2023-04-25T10:19:16;8.03;;;2.33;;
14778;SDS011;7481;53.750;10.570;2023-04-25T10:24:54;7.13;;;1.83;;
14778;SDS011;7481;53.750;10.570;2023-04-25T10:27:42;8.63;;;2.07;;
14778;SDS011;7481;53.750;10.570;2023-04-25T10:30:30;6.57;;;2.40;;
14778;SDS011;7481;53.750;10.570;2023-04-25T10:33:18;7.53;;;1.73;;
14778;SDS011;7481;53.750;10.570;2023-04-25T10:36:12;7.07;;;1.90;;
14778;SDS011;7481;53.750;10.570;2023-04-25T10:39:02;7.60;;;2.20;;
14778;SDS011;7481;53.750;10.570;2023-04-25T10:41:57;5.40;;;1.90;;
14778;SDS011;7481;53.750;10.570;2023-04-25T10:45:00;8.70;;;2.80;;
14778;SDS011;7481;53.750;10.570;2023-04-25T10:47:49;4.47;;;1.90;;
14778;SDS011;7481;53.750;10.570;2023-04-25T10:50:37;5.23;;;1.87;;
14778;SDS011;7481;53.750;10.570;2023-04-25T10:53:25;5.60;;;1.87;;
14778;SDS011;7481;53.750;10.570;2023-04-25T10:56:21;6.00;;;2.13;;
14778;SDS011;7481;53.750;10.570;2023-04-25T11:01:56;3.27;;;1.80;;
14778;SDS011;7481;53.750;10.570;2023-04-25T11:04:44;5.70;;;1.87;;
14778;SDS011;7481;53.750;10.570;2023-04-25T11:10:19;6.27;;;2.57;;
14778;SDS011;7481;53.750;10.570;2023-04-25T11:13:07;7.13;;;1.60;;
14778;SDS011;7481;53.750;10.570;2023-04-25T11:15:54;6.73;;;2.03;;
14778;SDS011;7481;53.750;10.570;2023-04-25T11:18:58;5.80;;;1.90;;
14778;SDS011;7481;53.750;10.570;2023-04-25T11:21:45;3.93;;;1.70;;
14778;SDS011;7481;53.750;10.570;2023-04-25T11:24:33;4.63;;;1.80;;
14778;SDS011;7481;53.750;10.570;2023-04-25T11:27:21;3.77;;;1.60;;
14778;SDS011;7481;53.750;10.570;2023-04-25T11:30:12;4.60;;;1.63;;
14778;SDS011;7481;53.750;10.570;2023-04-25T11:32:59;3.80;;;1.60;;
14778;SDS011;7481;53.750;10.570;2023-04-25T11:35:49;3.83;;;1.63;;
14778;SDS011;7481;53.750;10.570;2023-04-25T11:38:36;5.40;;;1.60;;
14778;SDS011;7481;53.750;10.570;2023-04-25T11:41:23;4.00;;;1.90;;
14778;SDS011;7481;53.750;10.570;2023-04-25T11:44:15;8.27;;;2.00;;
14778;SDS011;7481;53.750;10.570;2023-04-25T11:47:02;5.70;;;1.93;;
14778;SDS011;7481;53.750;10.570;2023-04-25T11:49:52;8.30;;;3.17;;
14778;SDS011;7481;53.750;10.570;2023-04-25T11:52:41;5.97;;;2.10;;
14778;SDS011;7481;53.750;10.570;2023-04-25T11:55:28;5.43;;;1.60;;
14778;SDS011;7481;53.750;10.570;2023-04-25T11:58:17;4.50;;;1.40;;
14778;SDS011;7481;53.750;10.570;2023-04-25T12:01:05;5.60;;;1.77;;
14778;SDS011;7481;53.750;10.570;2023-04-25T12:03:53;3.73;;;1.37;;
14778;SDS011;7481;53.750;10.570;2023-04-25T12:06:41;2.20;;;1.40;;
14778;SDS011;7481;53.750;10.570;2023-04-25T12:09:30;3.10;;;1.80;;
14778;SDS011;7481;53.750;10.570;2023-04-25T12:12:18;5.50;;;1.60;;
14778;SDS011;7481;53.750;10.570;2023-04-25T12:18:03;8.03;;;1.90;;
14778;SDS011;7481;53.750;10.570;2023-04-25T12:20:52;5.13;;;1.50;;
14778;SDS011;7481;53.750;10.570;2023-04-25T12:23:39;5.47;;;1.60;;
14778;SDS011;7481;53.750;10.570;2023-04-25T12:26:45;6.50;;;2.00;;
14778;SDS011;7481;53.750;10.570;2023-04-25T12:29:33;7.07;;;1.70;;
14778;SDS011;7481;53.750;10.570;2023-04-25T12:32:35;6.97;;;1.80;;
14778;SDS011;7481;53.750;10.570;2023-04-25T12:35:22;5.73;;;1.90;;
14778;SDS011;7481;53.750;10.570;2023-04-25T12:38:10;5.77;;;1.90;;
14778;SDS011;7481;53.750;10.570;2023-04-25T12:40:58;5.10;;;1.80;;
14778;SDS011;7481;53.750;10.570;2023-04-25T12:43:45;8.77;;;2.63;;
14778;SDS011;7481;53.750;10.570;2023-04-25T12:46:33;6.13;;;2.30;;
14778;SDS011;7481;53.750;10.570;2023-04-25T12:49:21;7.10;;;1.63;;
14778;SDS011;7481;53.750;10.570;2023-04-25T12:52:09;4.80;;;1.87;;
14778;SDS011;7481;53.750;10.570;2023-04-25T12:54:57;9.40;;;2.13;;
14778;SDS011;7481;53.750;10.570;2023-04-25T12:57:44;4.43;;;1.80;;
14778;SDS011;7481;53.750;10.570;2023-04-25T13:00:31;6.13;;;1.63;;
14778;SDS011;7481;53.750;10.570;2023-04-25T13:03:19;3.53;;;1.60;;
14778;SDS011;7481;53.750;10.570;2023-04-25T13:06:07;5.60;;;1.67;;
14778;SDS011;7481;53.750;10.570;2023-04-25T13:08:54;5.27;;;1.93;;
14778;SDS011;7481;53.750;10.570;2023-04-25T13:11:42;5.67;;;1.50;;
14778;SDS011;7481;53.750;10.570;2023-04-25T13:14:29;7.63;;;2.20;;
14778;SDS011;7481;53.750;10.570;2023-04-25T13:17:17;5.90;;;2.07;;
14778;SDS011;7481;53.750;10.570;2023-04-25T13:20:05;5.93;;;1.73;;
14778;SDS011;7481;53.750;10.570;2023-04-25T13:22:55;3.97;;;1.80;;
14778;SDS011;7481;53.750;10.570;2023-04-25T13:25:42;8.63;;;2.10;;
14778;SDS011;7481;53.750;10.570;2023-04-25T13:28:30;8.07;;;2.17;;
14778;SDS011;7481;53.750;10.570;2023-04-25T13:31:17;3.73;;;1.67;;
14778;SDS011;7481;53.750;10.570;2023-04-25T13:34:05;8.23;;;1.73;;
14778;SDS011;7481;53.750;10.570;2023-04-25T13:36:52;6.90;;;1.70;;
14778;SDS011;7481;53.750;10.570;2023-04-25T13:39:40;8.83;;;2.23;;
14778;SDS011;7481;53.750;10.570;2023-04-25T13:42:27;10.97;;;2.57;;
14778;SDS011;7481;53.750;10.570;2023-04-25T13:45:15;4.90;;;2.17;;
14778;SDS011;7481;53.750;10.570;2023-04-25T13:48:03;4.03;;;1.63;;
14778;SDS011;7481;53.750;10.570;2023-04-25T13:50:50;7.03;;;2.10;;
14778;SDS011;7481;53.750;10.570;2023-04-25T13:53:38;5.80;;;1.73;;
14778;SDS011;7481;53.750;10.570;2023-04-25T13:56:26;3.70;;;1.70;;
14778;SDS011;7481;53.750;10.570;2023-04-25T13:59:13;8.07;;;1.70;;
14778;SDS011;7481;53.750;10.570;2023-04-25T14:02:01;5.00;;;2.13;;
14778;SDS011;7481;53.750;10.570;2023-04-25T14:04:48;6.37;;;2.17;;
14778;SDS011;7481;53.750;10.570;2023-04-25T14:07:36;6.33;;;1.90;;
14778;SDS011;7481;53.750;10.570;2023-04-25T14:10:23;6.63;;;1.97;;
14778;SDS011;7481;53.750;10.570;2023-04-25T14:13:11;5.00;;;2.03;;
14778;SDS011;7481;53.750;10.570;2023-04-25T14:15:58;3.07;;;1.50;;
14778;SDS011;7481;53.750;10.570;2023-04-25T14:18:46;8.37;;;1.80;;
14778;SDS011;7481;53.750;10.570;2023-04-25T14:21:33;6.23;;;1.90;;
14778;SDS011;7481;53.750;10.570;2023-04-25T14:24:21;8.07;;;2.37;;
14778;SDS011;7481;53.750;10.570;2023-04-25T14:27:09;5.30;;;2.20;;
14778;SDS011;7481;53.750;10.570;2023-04-25T14:29:56;6.03;;;1.80;;
14778;SDS011;7481;53.750;10.570;2023-04-25T14:32:44;4.63;;;2.00;;
14778;SDS011;7481;53.750;10.570;2023-04-25T14:35:32;9.93;;;2.77;;
14778;SDS011;7481;53.750;10.570;2023-04-25T14:38:19;4.87;;;1.77;;
14778;SDS011;7481;53.750;10.570;2023-04-25T14:41:11;5.77;;;1.97;;
14778;SDS011;7481;53.750;10.570;2023-04-25T14:43:59;4.63;;;1.80;;
14778;SDS011;7481;53.750;10.570;2023-04-25T14:46:46;5.17;;;1.80;;
14778;SDS011;7481;53.750;10.570;2023-04-25T14:49:34;7.20;;;2.27;;
14778;SDS011;7481;53.750;10.570;2023-04-25T14:52:21;3.07;;;1.60;;
14778;SDS011;7481;53.750;10.570;2023-04-25T14:55:09;9.17;;;2.27;;
14778;SDS011;7481;53.750;10.570;2023-04-25T14:57:56;4.40;;;1.67;;
14778;SDS011;7481;53.750;10.570;2023-04-25T15:00:43;5.77;;;2.30;;
14778;SDS011;7481;53.750;10.570;2023-04-25T15:03:31;3.57;;;1.90;;
14778;SDS011;7481;53.750;10.570;2023-04-25T15:06:19;6.17;;;2.17;;
14778;SDS011;7481;53.750;10.570;2023-04-25T15:09:06;6.33;;;2.23;;
14778;SDS011;7481;53.750;10.570;2023-04-25T15:11:54;8.87;;;2.20;;
14778;SDS011;7481;53.750;10.570;2023-04-25T15:14:42;6.80;;;1.93;;
14778;SDS011;7481;53.750;10.570;2023-04-25T15:17:29;5.03;;;1.50;;
14778;SDS011;7481;53.750;10.570;2023-04-25T15:20:17;4.47;;;1.37;;
14778;SDS011;7481;53.750;10.570;2023-04-25T15:23:05;2.67;;;1.23;;
14778;SDS011;7481;53.750;10.570;2023-04-25T15:25:52;2.80;;;1.43;;
14778;SDS011;7481;53.750;10.570;2023-04-25T15:28:39;4.60;;;1.97;;
14778;SDS011;7481;53.750;10.570;2023-04-25T15:31:27;3.87;;;1.33;;
14778;SDS011;7481;53.750;10.570;2023-04-25T15:34:15;4.90;;;1.70;;
14778;SDS011;7481;53.750;10.570;2023-04-25T15:37:02;5.30;;;1.50;;
14778;SDS011;7481;53.750;10.570;2023-04-25T15:39:54;8.23;;;1.73;;
14778;SDS011;7481;53.750;10.570;2023-04-25T15:42:48;4.00;;;1.70;;
14778;SDS011;7481;53.750;10.570;2023-04-25T15:45:37;3.27;;;1.73;;
14778;SDS011;7481;53.750;10.570;2023-04-25T15:48:24;6.40;;;2.27;;
14778;SDS011;7481;53.750;10.570;2023-04-25T15:51:12;5.47;;;1.73;;
14778;SDS011;7481;53.750;10.570;2023-04-25T15:53:59;8.53;;;2.23;;
14778;SDS011;7481;53.750;10.570;2023-04-25T15:56:48;4.97;;;2.10;;
14778;SDS011;7481;53.750;10.570;2023-04-25T15:59:35;9.20;;;2.13;;
14778;SDS011;7481;53.750;10.570;2023-04-25T16:02:23;7.33;;;2.03;;
14778;SDS011;7481;53.750;10.570;2023-04-25T16:05:10;9.23;;;2.23;;
14778;SDS011;7481;53.750;10.570;2023-04-25T16:08:00;7.47;;;2.13;;
14778;SDS011;7481;53.750;10.570;2023-04-25T16:10:49;5.07;;;2.47;;
14778;SDS011;7481;53.750;10.570;2023-04-25T16:13:36;7.17;;;1.73;;
14778;SDS011;7481;53.750;10.570;2023-04-25T16:16:23;6.50;;;1.97;;
14778;SDS011;7481;53.750;10.570;2023-04-25T16:19:11;4.80;;;2.20;;
14778;SDS011;7481;53.750;10.570;2023-04-25T16:21:59;6.13;;;2.27;;
14778;SDS011;7481;53.750;10.570;2023-04-25T16:24:47;4.83;;;2.00;;
14778;SDS011;7481;53.750;10.570;2023-04-25T16:27:35;8.33;;;1.70;;
14778;SDS011;7481;53.750;10.570;2023-04-25T16:30:25;7.00;;;1.73;;
14778;SDS011;7481;53.750;10.570;2023-04-25T16:33:12;7.73;;;2.10;;
14778;SDS011;7481;53.750;10.570;2023-04-25T16:36:00;7.57;;;1.77;;
14778;SDS011;7481;53.750;10.570;2023-04-25T16:38:48;6.87;;;1.70;;
14778;SDS011;7481;53.750;10.570;2023-04-25T16:41:35;8.10;;;2.70;;
14778;SDS011;7481;53.750;10.570;2023-04-25T16:44:23;7.17;;;1.93;;
14778;SDS011;7481;53.750;10.570;2023-04-25T16:47:10;6.53;;;2.53;;
14778;SDS011;7481;53.750;10.570;2023-04-25T16:50:03;7.23;;;2.00;;
14778;SDS011;7481;53.750;10.570;2023-04-25T16:52:51;6.10;;;1.77;;
14778;SDS011;7481;53.750;10.570;2023-04-25T16:55:39;6.33;;;1.93;;